sensor_id;sensor_type;location;lat;lon;timestamp;pressure;altitude;pressure_sealevel;temperature;humidity
19128;BME280;9696;53.686;10.094;2023-07-31T00:01:59;100692.09;;;14.03;100.00
19128;BME280;9696;53.686;10.094;2023-07-31T00:04:30;100690.91;;;13.98;100.00
19128;BME280;9696;53.686;10.094;2023-07-31T00:06:59;100684.88;;;14.05;100.00
19128;BME280;9696;53.686;10.094;2023-07-31T00:09:28;100694.59;;;14.05;100.00
19128;BME280;9696;53.686;10.094;2023-07-31T00:11:57;100687.28;;;13.99;100.00
19128;BME280;9696;53.686;10.094;2023-07-31T00:14:27;100686.75;;;13.95;100.00
19128;BME280;9696;53.686;10.094;2023-07-31T00:16:56;100682.50;;;13.94;100.00
19128;BME280;9696;53.686;10.094;2023-07-31T00:19:25;100688.16;;;14.07;100.00
19128;BME280;9696;53.686;10.094;2023-07-31T00:21:55;100677.25;;;14.02;100.00
19128;BME280;9696;53.686;10.094;2023-07-31T00:24:25;100675.66;;;14.09;100.00
19128;BME280;9696;53.686;10.094;2023-07-31T00:26:54;100680.56;;;14.04;100.00
19128;BME280;9696;53.686;10.094;2023-07-31T00:29:23;100679.91;;;14.10;100.00
19128;BME280;9696;53.686;10.094;2023-07-31T00:31:52;100671.22;;;14.10;100.00
19128;BME280;9696;53.686;10.094;2023-07-31T00:34:21;100666.25;;;14.15;100.00
19128;BME280;9696;53.686;10.094;2023-07-31T00:36:50;100663.63;;;14.15;100.00
19128;BME280;9696;53.686;10.094;2023-07-31T00:39:21;100666.63;;;14.20;100.00
19128;BME280;9696;53.686;10.094;2023-07-31T00:41:50;100659.69;;;14.19;100.00
19128;BME280;9696;53.686;10.094;2023-07-31T00:44:19;100656.53;;;14.15;100.00
19128;BME280;9696;53.686;10.094;2023-07-31T00:46:48;100661.22;;;14.22;100.00
19128;BME280;9696;53.686;10.094;2023-07-31T00:49:18;100658.38;;;14.23;100.00
19128;BME280;9696;53.686;10.094;2023-07-31T00:51:47;100658.06;;;14.26;100.00
19128;BME280;9696;53.686;10.094;2023-07-31T00:54:17;100656.44;;;14.25;100.00
19128;BME280;9696;53.686;10.094;2023-07-31T00:56:48;100651.16;;;14.25;100.00
19128;BME280;9696;53.686;10.094;2023-07-31T00:59:19;100651.47;;;14.22;100.00
19128;BME280;9696;53.686;10.094;2023-07-31T01:01:48;100636.13;;;14.18;100.00
19128;BME280;9696;53.686;10.094;2023-07-31T01:04:18;100642.38;;;14.16;100.00
19128;BME280;9696;53.686;10.094;2023-07-31T01:06:52;100635.28;;;14.17;100.00
19128;BME280;9696;53.686;10.094;2023-07-31T01:09:29;100622.56;;;14.12;100.00
19128;BME280;9696;53.686;10.094;2023-07-31T01:12:03;100623.88;;;14.08;100.00
19128;BME280;9696;53.686;10.094;2023-07-31T01:14:33;100623.38;;;14.05;100.00
19128;BME280;9696;53.686;10.094;2023-07-31T01:17:02;100619.38;;;14.01;100.00
19128;BME280;9696;53.686;10.094;2023-07-31T01:19:32;100619.38;;;14.01;100.00
19128;BME280;9696;53.686;10.094;2023-07-31T01:22:16;100613.94;;;14.02;100.00
19128;BME280;9696;53.686;10.094;2023-07-31T01:24:59;100611.47;;;14.01;100.00
19128;BME280;9696;53.686;10.094;2023-07-31T01:27:42;100611.50;;;14.09;100.00
19128;BME280;9696;53.686;10.094;2023-07-31T01:30:16;100603.25;;;14.04;100.00
19128;BME280;9696;53.686;10.094;2023-07-31T01:32:49;100613.47;;;14.07;100.00
19128;BME280;9696;53.686;10.094;2023-07-31T01:35:19;100612.50;;;14.08;100.00
19128;BME280;9696;53.686;10.094;2023-07-31T01:37:49;100604.53;;;14.00;100.00
19128;BME280;9696;53.686;10.094;2023-07-31T01:40:21;100597.13;;;14.03;100.00
19128;BME280;9696;53.686;10.094;2023-07-31T01:42:51;100605.22;;;14.02;100.00
19128;BME280;9696;53.686;10.094;2023-07-31T01:45:20;100602.06;;;13.98;100.00
19128;BME280;9696;53.686;10.094;2023-07-31T01:47:50;100608.19;;;14.07;100.00
19128;BME280;9696;53.686;10.094;2023-07-31T01:50:19;100588.25;;;14.04;100.00
19128;BME280;9696;53.686;10.094;2023-07-31T01:52:48;100584.63;;;14.05;100.00
19128;BME280;9696;53.686;10.094;2023-07-31T01:55:17;100593.41;;;14.14;100.00
19128;BME280;9696;53.686;10.094;2023-07-31T01:57:46;100578.91;;;14.18;100.00
19128;BME280;9696;53.686;10.094;2023-07-31T02:00:17;100570.34;;;14.24;100.00
19128;BME280;9696;53.686;10.094;2023-07-31T02:02:47;100575.47;;;14.26;100.00
19128;BME280;9696;53.686;10.094;2023-07-31T02:05:16;100566.75;;;14.33;100.00
19128;BME280;9696;53.686;10.094;2023-07-31T02:07:45;100572.91;;;14.42;100.00
19128;BME280;9696;53.686;10.094;2023-07-31T02:10:15;100556.41;;;14.48;100.00
19128;BME280;9696;53.686;10.094;2023-07-31T02:12:44;100561.38;;;14.51;100.00
19128;BME280;9696;53.686;10.094;2023-07-31T02:15:13;100565.19;;;14.56;100.00
19128;BME280;9696;53.686;10.094;2023-07-31T02:17:44;100561.22;;;14.60;100.00
19128;BME280;9696;53.686;10.094;2023-07-31T02:20:13;100552.66;;;14.67;100.00
19128;BME280;9696;53.686;10.094;2023-07-31T02:22:42;100549.38;;;14.73;100.00
19128;BME280;9696;53.686;10.094;2023-07-31T02:25:11;100548.88;;;14.77;100.00
19128;BME280;9696;53.686;10.094;2023-07-31T02:27:40;100538.97;;;14.79;100.00
19128;BME280;9696;53.686;10.094;2023-07-31T02:30:10;100537.31;;;14.78;100.00
19128;BME280;9696;53.686;10.094;2023-07-31T02:32:40;100529.72;;;14.83;100.00
19128;BME280;9696;53.686;10.094;2023-07-31T02:35:10;100525.75;;;14.79;100.00
19128;BME280;9696;53.686;10.094;2023-07-31T02:37:43;100530.72;;;14.82;100.00
19128;BME280;9696;53.686;10.094;2023-07-31T02:40:12;100519.50;;;14.80;100.00
19128;BME280;9696;53.686;10.094;2023-07-31T02:42:42;100533.34;;;14.82;100.00
19128;BME280;9696;53.686;10.094;2023-07-31T02:45:12;100532.22;;;14.85;100.00
19128;BME280;9696;53.686;10.094;2023-07-31T02:47:42;100525.44;;;14.82;100.00
19128;BME280;9696;53.686;10.094;2023-07-31T02:50:12;100521.97;;;14.82;100.00
19128;BME280;9696;53.686;10.094;2023-07-31T02:52:41;100514.38;;;14.95;100.00
19128;BME280;9696;53.686;10.094;2023-07-31T02:55:10;100514.03;;;14.98;100.00
19128;BME280;9696;53.686;10.094;2023-07-31T02:57:40;100510.41;;;14.91;100.00
19128;BME280;9696;53.686;10.094;2023-07-31T03:00:09;100503.31;;;14.99;100.00
19128;BME280;9696;53.686;10.094;2023-07-31T03:02:38;100504.13;;;14.92;100.00
19128;BME280;9696;53.686;10.094;2023-07-31T03:05:08;100511.88;;;14.93;100.00
19128;BME280;9696;53.686;10.094;2023-07-31T03:07:38;100504.63;;;14.95;100.00
19128;BME280;9696;53.686;10.094;2023-07-31T03:10:08;100508.59;;;14.91;100.00
19128;BME280;9696;53.686;10.094;2023-07-31T03:12:38;100512.22;;;14.98;100.00
19128;BME280;9696;53.686;10.094;2023-07-31T03:15:08;100501.50;;;15.00;100.00
19128;BME280;9696;53.686;10.094;2023-07-31T03:17:37;100492.75;;;14.99;100.00
19128;BME280;9696;53.686;10.094;2023-07-31T03:20:07;100498.38;;;14.96;100.00
19128;BME280;9696;53.686;10.094;2023-07-31T03:22:38;100498.03;;;14.99;100.00
19128;BME280;9696;53.686;10.094;2023-07-31T03:25:09;100493.38;;;15.01;100.00
19128;BME280;9696;53.686;10.094;2023-07-31T03:27:38;100492.88;;;15.06;100.00
19128;BME280;9696;53.686;10.094;2023-07-31T03:30:08;100484.00;;;14.99;100.00
19128;BME280;9696;53.686;10.094;2023-07-31T03:32:37;100487.81;;;14.96;100.00
19128;BME280;9696;53.686;10.094;2023-07-31T03:35:07;100489.75;;;15.02;100.00
19128;BME280;9696;53.686;10.094;2023-07-31T03:37:38;100486.28;;;15.02;100.00
19128;BME280;9696;53.686;10.094;2023-07-31T03:40:08;100485.97;;;15.05;100.00
19128;BME280;9696;53.686;10.094;2023-07-31T03:42:37;100491.09;;;14.98;100.00
19128;BME280;9696;53.686;10.094;2023-07-31T03:45:08;100484.16;;;14.97;100.00
19128;BME280;9696;53.686;10.094;2023-07-31T03:47:37;100490.25;;;15.06;100.00
19128;BME280;9696;53.686;10.094;2023-07-31T03:50:07;100487.28;;;15.09;100.00
19128;BME280;9696;53.686;10.094;2023-07-31T03:52:38;100490.56;;;15.11;100.00
19128;BME280;9696;53.686;10.094;2023-07-31T03:55:08;100485.13;;;15.13;100.00
19128;BME280;9696;53.686;10.094;2023-07-31T03:57:37;100493.06;;;15.13;100.00
19128;BME280;9696;53.686;10.094;2023-07-31T04:00:07;100491.22;;;15.13;100.00
19128;BME280;9696;53.686;10.094;2023-07-31T04:02:39;100490.88;;;15.24;100.00
19128;BME280;9696;53.686;10.094;2023-07-31T04:05:09;100485.25;;;15.27;100.00
19128;BME280;9696;53.686;10.094;2023-07-31T04:07:40;100480.97;;;15.26;100.00
19128;BME280;9696;53.686;10.094;2023-07-31T04:10:09;100474.69;;;15.27;100.00
19128;BME280;9696;53.686;10.094;2023-07-31T04:12:40;100467.75;;;15.26;100.00
19128;BME280;9696;53.686;10.094;2023-07-31T04:15:10;100466.75;;;15.35;100.00
19128;BME280;9696;53.686;10.094;2023-07-31T04:17:39;100472.69;;;15.29;100.00
19128;BME280;9696;53.686;10.094;2023-07-31T04:20:09;100460.97;;;15.32;100.00
19128;BME280;9696;53.686;10.094;2023-07-31T04:22:40;100459.81;;;15.26;100.00
19128;BME280;9696;53.686;10.094;2023-07-31T04:25:09;100460.16;;;15.31;100.00
19128;BME280;9696;53.686;10.094;2023-07-31T04:27:38;100454.84;;;15.39;100.00
19128;BME280;9696;53.686;10.094;2023-07-31T04:30:08;100458.63;;;15.37;100.00
19128;BME280;9696;53.686;10.094;2023-07-31T04:32:37;100460.50;;;15.28;100.00
19128;BME280;9696;53.686;10.094;2023-07-31T04:35:07;100455.38;;;15.27;100.00
19128;BME280;9696;53.686;10.094;2023-07-31T04:37:36;100452.22;;;15.31;100.00
19128;BME280;9696;53.686;10.094;2023-07-31T04:40:08;100455.34;;;15.35;100.00
19128;BME280;9696;53.686;10.094;2023-07-31T04:42:37;100460.13;;;15.39;100.00
19128;BME280;9696;53.686;10.094;2023-07-31T04:45:08;100456.31;;;15.34;100.00
19128;BME280;9696;53.686;10.094;2023-07-31T04:47:37;100469.38;;;15.35;100.00
19128;BME280;9696;53.686;10.094;2023-07-31T04:50:07;100458.97;;;15.34;100.00
19128;BME280;9696;53.686;10.094;2023-07-31T04:52:37;100452.84;;;15.33;100.00
19128;BME280;9696;53.686;10.094;2023-07-31T04:55:08;100449.19;;;15.42;100.00
19128;BME280;9696;53.686;10.094;2023-07-31T04:57:38;100454.00;;;15.39;100.00
19128;BME280;9696;53.686;10.094;2023-07-31T05:00:08;100448.06;;;15.37;100.00
19128;BME280;9696;53.686;10.094;2023-07-31T05:02:38;100447.09;;;15.30;100.00
19128;BME280;9696;53.686;10.094;2023-07-31T05:05:08;100435.34;;;15.40;100.00
19128;BME280;9696;53.686;10.094;2023-07-31T05:07:37;100445.91;;;15.40;100.00
19128;BME280;9696;53.686;10.094;2023-07-31T05:10:09;100441.28;;;15.42;100.00
19128;BME280;9696;53.686;10.094;2023-07-31T05:12:40;100443.59;;;15.37;100.00
19128;BME280;9696;53.686;10.094;2023-07-31T05:15:11;100453.03;;;15.40;100.00
19128;BME280;9696;53.686;10.094;2023-07-31T05:17:40;100445.75;;;15.34;100.00
19128;BME280;9696;53.686;10.094;2023-07-31T05:20:10;100446.91;;;15.39;100.00
19128;BME280;9696;53.686;10.094;2023-07-31T05:22:44;100450.38;;;15.40;100.00
19128;BME280;9696;53.686;10.094;2023-07-31T05:25:15;100440.13;;;15.37;100.00
19128;BME280;9696;53.686;10.094;2023-07-31T05:27:44;100442.44;;;15.40;100.00
19128;BME280;9696;53.686;10.094;2023-07-31T05:30:14;100435.38;;;15.32;100.00
19128;BME280;9696;53.686;10.094;2023-07-31T05:32:43;100435.84;;;15.36;100.00
19128;BME280;9696;53.686;10.094;2023-07-31T05:35:13;100441.63;;;15.39;100.00
19128;BME280;9696;53.686;10.094;2023-07-31T05:37:42;100439.44;;;15.43;100.00
19128;BME280;9696;53.686;10.094;2023-07-31T05:40:11;100437.78;;;15.42;100.00
19128;BME280;9696;53.686;10.094;2023-07-31T05:42:42;100438.16;;;15.39;100.00
19128;BME280;9696;53.686;10.094;2023-07-31T05:45:11;100430.88;;;15.33;100.00
19128;BME280;9696;53.686;10.094;2023-07-31T05:47:41;100426.75;;;15.38;100.00
19128;BME280;9696;53.686;10.094;2023-07-31T05:50:10;100432.19;;;15.37;100.00
19128;BME280;9696;53.686;10.094;2023-07-31T05:52:41;100424.81;;;15.32;100.00
19128;BME280;9696;53.686;10.094;2023-07-31T05:55:10;100436.00;;;15.34;100.00
19128;BME280;9696;53.686;10.094;2023-07-31T05:57:41;100427.53;;;15.47;100.00
19128;BME280;9696;53.686;10.094;2023-07-31T06:00:11;100425.56;;;15.41;100.00
19128;BME280;9696;53.686;10.094;2023-07-31T06:02:40;100428.06;;;15.42;100.00
19128;BME280;9696;53.686;10.094;2023-07-31T06:05:09;100428.38;;;15.47;100.00
19128;BME280;9696;53.686;10.094;2023-07-31T06:07:39;100425.72;;;15.47;100.00
19128;BME280;9696;53.686;10.094;2023-07-31T06:10:09;100419.44;;;15.48;100.00
19128;BME280;9696;53.686;10.094;2023-07-31T06:12:38;100423.47;;;15.36;100.00
19128;BME280;9696;53.686;10.094;2023-07-31T06:15:09;100411.53;;;15.48;100.00
19128;BME280;9696;53.686;10.094;2023-07-31T06:17:39;100414.97;;;15.49;100.00
19128;BME280;9696;53.686;10.094;2023-07-31T06:20:09;100418.44;;;15.57;100.00
19128;BME280;9696;53.686;10.094;2023-07-31T06:22:38;100415.81;;;15.49;100.00
19128;BME280;9696;53.686;10.094;2023-07-31T06:25:08;100422.94;;;15.41;100.00
19128;BME280;9696;53.686;10.094;2023-07-31T06:27:42;100417.31;;;15.52;100.00
19128;BME280;9696;53.686;10.094;2023-07-31T06:30:13;100420.09;;;15.59;100.00
19128;BME280;9696;53.686;10.094;2023-07-31T06:32:42;100426.38;;;15.57;100.00
19128;BME280;9696;53.686;10.094;2023-07-31T06:35:11;100428.19;;;15.57;100.00
19128;BME280;9696;53.686;10.094;2023-07-31T06:37:40;100430.66;;;15.59;100.00
19128;BME280;9696;53.686;10.094;2023-07-31T06:40:12;100429.19;;;15.56;100.00
19128;BME280;9696;53.686;10.094;2023-07-31T06:42:41;100430.19;;;15.55;100.00
19128;BME280;9696;53.686;10.094;2023-07-31T06:45:12;100430.19;;;15.55;100.00
19128;BME280;9696;53.686;10.094;2023-07-31T06:47:41;100426.00;;;15.61;100.00
19128;BME280;9696;53.686;10.094;2023-07-31T06:50:10;100426.50;;;15.64;100.00
19128;BME280;9696;53.686;10.094;2023-07-31T06:52:39;100414.13;;;15.56;100.00
19128;BME280;9696;53.686;10.094;2023-07-31T06:55:17;100416.09;;;15.63;100.00
19128;BME280;9696;53.686;10.094;2023-07-31T06:57:47;100422.38;;;15.62;100.00
19128;BME280;9696;53.686;10.094;2023-07-31T07:00:19;100426.81;;;15.69;100.00
19128;BME280;9696;53.686;10.094;2023-07-31T07:02:49;100426.72;;;15.85;100.00
19128;BME280;9696;53.686;10.094;2023-07-31T07:05:19;100434.56;;;15.71;100.00
19128;BME280;9696;53.686;10.094;2023-07-31T07:07:49;100434.97;;;15.60;100.00
19128;BME280;9696;53.686;10.094;2023-07-31T07:10:19;100429.66;;;15.60;100.00
19128;BME280;9696;53.686;10.094;2023-07-31T07:12:49;100427.13;;;15.74;100.00
19128;BME280;9696;53.686;10.094;2023-07-31T07:15:19;100427.59;;;15.78;100.00
19128;BME280;9696;53.686;10.094;2023-07-31T07:17:52;100433.91;;;15.69;100.00
19128;BME280;9696;53.686;10.094;2023-07-31T07:20:21;100430.50;;;15.60;100.00
19128;BME280;9696;53.686;10.094;2023-07-31T07:22:50;100432.47;;;15.58;100.00
19128;BME280;9696;53.686;10.094;2023-07-31T07:25:19;100431.63;;;15.66;100.00
19128;BME280;9696;53.686;10.094;2023-07-31T07:27:48;100427.94;;;15.75;100.00
19128;BME280;9696;53.686;10.094;2023-07-31T07:30:19;100434.22;;;15.74;100.00
19128;BME280;9696;53.686;10.094;2023-07-31T07:32:48;100429.75;;;15.74;100.00
19128;BME280;9696;53.686;10.094;2023-07-31T07:35:17;100427.63;;;15.70;100.00
19128;BME280;9696;53.686;10.094;2023-07-31T07:37:48;100422.66;;;15.75;100.00
19128;BME280;9696;53.686;10.094;2023-07-31T07:40:20;100430.34;;;15.53;100.00
19128;BME280;9696;53.686;10.094;2023-07-31T07:42:50;100430.94;;;15.72;100.00
19128;BME280;9696;53.686;10.094;2023-07-31T07:45:21;100430.59;;;15.75;100.00
19128;BME280;9696;53.686;10.094;2023-07-31T07:47:50;100424.91;;;15.55;100.00
19128;BME280;9696;53.686;10.094;2023-07-31T07:50:19;100426.59;;;15.79;100.00
19128;BME280;9696;53.686;10.094;2023-07-31T07:52:49;100417.00;;;15.78;100.00
19128;BME280;9696;53.686;10.094;2023-07-31T07:55:18;100412.97;;;15.90;100.00
19128;BME280;9696;53.686;10.094;2023-07-31T07:57:47;100417.63;;;15.88;100.00
19128;BME280;9696;53.686;10.094;2023-07-31T08:00:19;100423.72;;;15.88;100.00
19128;BME280;9696;53.686;10.094;2023-07-31T08:02:48;100423.09;;;15.86;100.00
19128;BME280;9696;53.686;10.094;2023-07-31T08:05:18;100420.13;;;15.81;100.00
19128;BME280;9696;53.686;10.094;2023-07-31T08:07:47;100421.13;;;15.80;100.00
19128;BME280;9696;53.686;10.094;2023-07-31T08:10:16;100409.03;;;15.86;100.00
19128;BME280;9696;53.686;10.094;2023-07-31T08:12:45;100407.56;;;16.06;100.00
19128;BME280;9696;53.686;10.094;2023-07-31T08:15:14;100418.28;;;16.13;100.00
19128;BME280;9696;53.686;10.094;2023-07-31T08:17:45;100423.16;;;16.01;100.00
19128;BME280;9696;53.686;10.094;2023-07-31T08:20:14;100408.41;;;16.29;100.00
19128;BME280;9696;53.686;10.094;2023-07-31T08:22:43;100409.63;;;16.41;100.00
19128;BME280;9696;53.686;10.094;2023-07-31T08:25:12;100399.19;;;16.40;100.00
19128;BME280;9696;53.686;10.094;2023-07-31T08:27:43;100380.63;;;16.25;100.00
19128;BME280;9696;53.686;10.094;2023-07-31T08:30:12;100381.41;;;16.34;100.00
19128;BME280;9696;53.686;10.094;2023-07-31T08:32:42;100379.44;;;16.28;100.00
19128;BME280;9696;53.686;10.094;2023-07-31T08:35:12;100370.19;;;16.46;100.00
19128;BME280;9696;53.686;10.094;2023-07-31T08:37:41;100371.06;;;16.62;100.00
19128;BME280;9696;53.686;10.094;2023-07-31T08:40:11;100365.50;;;16.34;100.00
19128;BME280;9696;53.686;10.094;2023-07-31T08:42:45;100369.91;;;16.41;100.00
19128;BME280;9696;53.686;10.094;2023-07-31T08:45:15;100371.03;;;16.47;100.00
19128;BME280;9696;53.686;10.094;2023-07-31T08:47:46;100378.94;;;16.70;100.00
19128;BME280;9696;53.686;10.094;2023-07-31T08:50:18;100377.00;;;16.64;100.00
19128;BME280;9696;53.686;10.094;2023-07-31T08:52:50;100376.78;;;16.50;100.00
19128;BME280;9696;53.686;10.094;2023-07-31T08:55:19;100376.59;;;16.52;100.00
19128;BME280;9696;53.686;10.094;2023-07-31T08:57:52;100376.13;;;16.48;100.00
19128;BME280;9696;53.686;10.094;2023-07-31T09:00:23;100381.13;;;16.43;100.00
19128;BME280;9696;53.686;10.094;2023-07-31T09:02:57;100369.66;;;16.51;100.00
19128;BME280;9696;53.686;10.094;2023-07-31T09:05:31;100366.97;;;16.59;100.00
19128;BME280;9696;53.686;10.094;2023-07-31T09:08:03;100365.03;;;16.68;100.00
19128;BME280;9696;53.686;10.094;2023-07-31T09:10:33;100355.19;;;16.62;100.00
19128;BME280;9696;53.686;10.094;2023-07-31T09:13:03;100356.56;;;16.58;100.00
19128;BME280;9696;53.686;10.094;2023-07-31T09:15:33;100364.34;;;16.59;100.00
19128;BME280;9696;53.686;10.094;2023-07-31T09:18:06;100366.28;;;16.42;100.00
19128;BME280;9696;53.686;10.094;2023-07-31T09:20:37;100362.53;;;16.51;100.00
19128;BME280;9696;53.686;10.094;2023-07-31T09:23:08;100361.16;;;16.78;100.00
19128;BME280;9696;53.686;10.094;2023-07-31T09:25:38;100357.63;;;16.63;100.00
19128;BME280;9696;53.686;10.094;2023-07-31T09:28:10;100356.38;;;16.59;100.00
19128;BME280;9696;53.686;10.094;2023-07-31T09:30:48;100348.94;;;16.55;100.00
19128;BME280;9696;53.686;10.094;2023-07-31T09:33:17;100346.47;;;16.53;100.00
19128;BME280;9696;53.686;10.094;2023-07-31T09:35:51;100348.59;;;16.58;100.00
19128;BME280;9696;53.686;10.094;2023-07-31T09:38:20;100338.44;;;16.46;100.00
19128;BME280;9696;53.686;10.094;2023-07-31T09:40:49;100334.16;;;16.60;100.00
19128;BME280;9696;53.686;10.094;2023-07-31T09:43:25;100331.16;;;16.63;100.00
19128;BME280;9696;53.686;10.094;2023-07-31T09:45:57;100326.88;;;16.77;100.00
19128;BME280;9696;53.686;10.094;2023-07-31T09:48:26;100319.34;;;16.51;100.00
19128;BME280;9696;53.686;10.094;2023-07-31T09:50:57;100316.81;;;16.72;100.00
19128;BME280;9696;53.686;10.094;2023-07-31T09:53:33;100315.19;;;16.57;100.00
19128;BME280;9696;53.686;10.094;2023-07-31T09:56:02;100308.19;;;16.56;100.00
19128;BME280;9696;53.686;10.094;2023-07-31T09:58:35;100302.97;;;16.70;100.00
19128;BME280;9696;53.686;10.094;2023-07-31T10:01:04;100293.63;;;16.89;100.00
19128;BME280;9696;53.686;10.094;2023-07-31T10:03:34;100296.91;;;16.76;100.00
19128;BME280;9696;53.686;10.094;2023-07-31T10:06:05;100298.97;;;16.51;100.00
19128;BME280;9696;53.686;10.094;2023-07-31T10:08:38;100303.59;;;16.58;100.00
19128;BME280;9696;53.686;10.094;2023-07-31T10:11:08;100312.16;;;16.60;100.00
19128;BME280;9696;53.686;10.094;2023-07-31T10:13:39;100317.81;;;16.57;100.00
19128;BME280;9696;53.686;10.094;2023-07-31T10:16:08;100316.09;;;16.64;100.00
19128;BME280;9696;53.686;10.094;2023-07-31T10:18:39;100318.47;;;16.73;100.00
19128;BME280;9696;53.686;10.094;2023-07-31T10:21:10;100307.16;;;16.65;100.00
19128;BME280;9696;53.686;10.094;2023-07-31T10:23:40;100300.13;;;16.86;100.00
19128;BME280;9696;53.686;10.094;2023-07-31T10:26:10;100295.38;;;16.82;100.00
19128;BME280;9696;53.686;10.094;2023-07-31T10:28:40;100296.16;;;16.53;100.00
19128;BME280;9696;53.686;10.094;2023-07-31T10:31:10;100293.28;;;16.77;100.00
19128;BME280;9696;53.686;10.094;2023-07-31T10:33:40;100294.88;;;16.49;100.00
19128;BME280;9696;53.686;10.094;2023-07-31T10:36:16;100293.03;;;16.49;100.00
19128;BME280;9696;53.686;10.094;2023-07-31T10:38:48;100292.09;;;16.65;100.00
19128;BME280;9696;53.686;10.094;2023-07-31T10:41:18;100283.47;;;16.63;100.00
19128;BME280;9696;53.686;10.094;2023-07-31T10:43:47;100277.56;;;16.61;100.00
19128;BME280;9696;53.686;10.094;2023-07-31T10:46:16;100277.75;;;16.74;100.00
19128;BME280;9696;53.686;10.094;2023-07-31T10:48:46;100288.56;;;16.50;100.00
19128;BME280;9696;53.686;10.094;2023-07-31T10:51:32;100283.97;;;16.67;100.00
19128;BME280;9696;53.686;10.094;2023-07-31T10:54:12;100284.06;;;16.59;100.00
19128;BME280;9696;53.686;10.094;2023-07-31T10:56:45;100275.25;;;16.87;100.00
19128;BME280;9696;53.686;10.094;2023-07-31T10:59:15;100284.19;;;16.42;100.00
19128;BME280;9696;53.686;10.094;2023-07-31T11:01:52;100279.19;;;16.77;100.00
19128;BME280;9696;53.686;10.094;2023-07-31T11:04:24;100277.19;;;16.79;100.00
19128;BME280;9696;53.686;10.094;2023-07-31T11:07:00;100275.63;;;16.84;100.00
19128;BME280;9696;53.686;10.094;2023-07-31T11:09:32;100273.72;;;16.64;100.00
19128;BME280;9696;53.686;10.094;2023-07-31T11:12:01;100273.47;;;16.59;100.00
19128;BME280;9696;53.686;10.094;2023-07-31T11:14:31;100275.34;;;16.50;100.00
19128;BME280;9696;53.686;10.094;2023-07-31T11:17:00;100272.69;;;16.50;100.00
19128;BME280;9696;53.686;10.094;2023-07-31T11:19:34;100262.66;;;16.60;100.00
19128;BME280;9696;53.686;10.094;2023-07-31T11:22:08;100271.69;;;16.51;100.00
19128;BME280;9696;53.686;10.094;2023-07-31T11:24:37;100265.31;;;16.75;100.00
19128;BME280;9696;53.686;10.094;2023-07-31T11:27:08;100269.25;;;16.79;100.00
19128;BME280;9696;53.686;10.094;2023-07-31T11:29:37;100266.75;;;16.48;100.00
19128;BME280;9696;53.686;10.094;2023-07-31T11:32:16;100268.56;;;16.33;100.00
19128;BME280;9696;53.686;10.094;2023-07-31T11:34:52;100255.59;;;16.38;100.00
19128;BME280;9696;53.686;10.094;2023-07-31T11:37:23;100263.88;;;16.20;100.00
19128;BME280;9696;53.686;10.094;2023-07-31T11:40:02;100255.03;;;16.13;100.00
19128;BME280;9696;53.686;10.094;2023-07-31T11:42:31;100261.34;;;16.41;100.00
19128;BME280;9696;53.686;10.094;2023-07-31T11:45:03;100256.59;;;16.37;100.00
19128;BME280;9696;53.686;10.094;2023-07-31T11:47:33;100262.53;;;16.24;100.00
19128;BME280;9696;53.686;10.094;2023-07-31T11:50:04;100268.84;;;16.52;100.00
19128;BME280;9696;53.686;10.094;2023-07-31T11:52:40;100252.97;;;16.38;100.00
19128;BME280;9696;53.686;10.094;2023-07-31T11:55:12;100252.72;;;16.62;100.00
19128;BME280;9696;53.686;10.094;2023-07-31T11:57:44;100239.50;;;16.10;100.00
19128;BME280;9696;53.686;10.094;2023-07-31T12:00:15;100242.53;;;16.22;100.00
19128;BME280;9696;53.686;10.094;2023-07-31T12:02:45;100251.84;;;16.18;100.00
19128;BME280;9696;53.686;10.094;2023-07-31T12:05:15;100252.22;;;16.15;100.00
19128;BME280;9696;53.686;10.094;2023-07-31T12:07:50;100242.31;;;16.09;100.00
19128;BME280;9696;53.686;10.094;2023-07-31T12:10:27;100238.38;;;16.57;100.00
19128;BME280;9696;53.686;10.094;2023-07-31T12:12:58;100236.78;;;16.47;100.00
19128;BME280;9696;53.686;10.094;2023-07-31T12:15:34;100239.94;;;16.66;100.00
19128;BME280;9696;53.686;10.094;2023-07-31T12:18:09;100242.09;;;16.77;100.00
19128;BME280;9696;53.686;10.094;2023-07-31T12:20:43;100234.97;;;16.48;100.00
19128;BME280;9696;53.686;10.094;2023-07-31T12:23:17;100236.38;;;16.59;100.00
19128;BME280;9696;53.686;10.094;2023-07-31T12:25:47;100230.03;;;16.16;100.00
19128;BME280;9696;53.686;10.094;2023-07-31T12:28:16;100229.31;;;16.36;100.00
19128;BME280;9696;53.686;10.094;2023-07-31T12:30:51;100229.41;;;16.43;100.00
19128;BME280;9696;53.686;10.094;2023-07-31T12:33:20;100231.31;;;16.49;100.00
19128;BME280;9696;53.686;10.094;2023-07-31T12:35:49;100228.47;;;16.21;100.00
19128;BME280;9696;53.686;10.094;2023-07-31T12:38:20;100219.25;;;16.17;100.00
19128;BME280;9696;53.686;10.094;2023-07-31T12:40:49;100216.06;;;16.22;100.00
19128;BME280;9696;53.686;10.094;2023-07-31T12:43:19;100208.22;;;16.28;100.00
19128;BME280;9696;53.686;10.094;2023-07-31T12:45:48;100215.59;;;16.47;100.00
19128;BME280;9696;53.686;10.094;2023-07-31T12:48:17;100206.97;;;16.39;100.00
19128;BME280;9696;53.686;10.094;2023-07-31T12:50:47;100210.06;;;16.42;100.00
19128;BME280;9696;53.686;10.094;2023-07-31T12:53:16;100205.44;;;16.59;100.00
19128;BME280;9696;53.686;10.094;2023-07-31T12:55:47;100208.97;;;16.22;100.00
19128;BME280;9696;53.686;10.094;2023-07-31T12:58:16;100193.59;;;16.32;100.00